Tiempo atmosférico en la estación meteorológica de Portocolom, Illes Balears (17 m.)



Fecha
DESCASC
Temp. máxima en grados centígrados (hora)
DESCASC
Temp. mínima en grados centígrados (hora)
DESCASC
Temp. media en grados centígrados
DESCASC
Racha de viento máxima en m/sg (hora)
DESCASC
Velocidad máxima media en intervalos de 10 minutos(hora)
DESCASC
Precipitaciones diarias en mm
DESCASC
Precipitaciones de 00:00 a 06:00 en mm
DESCASC
Precipitaciones de 06:00 a 12:00 en mm
DESCASC
Precipitaciones de 12:00 a 18:00 en mm
DESCASC
Precipitaciones de 18:00 a 24:00 en mm
DESCASC
11-08-2020 31.7 (15:30) 23.4 (07:00) 27.6 8.89 (19:10) 5.83 (19:10) 0 0 0 0 0
10-08-2020 31.3 (16:30) 22.5 (07:40) 26.9 5 (13:50) 2.78 (23:40) 0 0 0 0 0
09-08-2020 32.3 (15:30) 21.5 (07:20) 26.9 6.39 (14:30) 5.28 (14:30) 0 0 0 0 0
08-08-2020 32 (16:10) 20.7 (06:50) 26.4 8.06 (16:50) 6.67 (16:40) 0 0 0 0 0
07-08-2020 31.6 (15:00) 20.4 (00:00) 26 5.83 (17:50) 4.72 (16:30) 0 0 0 0 0
06-08-2020 30.8 (15:30) 20.9 (00:00) 25.8 6.39 (15:20) 4.72 (15:40) 0 0 0 0 0
05-08-2020 29.8 (15:30) 21 (00:00) 25.4 11.11 (16:00) 8.33 (16:00) 0 0 0 0 0
04-08-2020 28.6 (12:00) 22.6 (13:50) 25.6 8.33 (05:20) 5.28 (05:10) 1.2 0 0 1.2 0
03-08-2020 28.5 (14:30) 25 (23:10) 26.8 8.06 (13:00) 5 (16:50) 0 0 0 0 0
02-08-2020 30.6 (16:30) 25 (00:00) 27.8 10.56 (13:30) 7.22 (13:30) 0 0 0 0 0
01-08-2020 31.4 (14:50) 23.1 (00:00) 27.3 10.56 (18:40) 8.33 (18:40) 0 0 0 0 0
31-07-2020 31.5 (15:50) 22.5 (05:50) 27 5.28 (09:50) 3.61 (14:00) 0 0 0 0 0
30-07-2020 32.4 (13:30) 23.8 (00:00) 28.1 6.39 (06:00) 4.44 (11:50) 0 0 0 0 0
29-07-2020 32.1 (14:40) 24 (00:00) 28 9.44 (10:00) 6.39 (10:20) 0 0 0 0 0
28-07-2020 32.1 (16:10) 22.9 (00:00) 27.5 6.39 (09:50) 4.44 (10:50) 0 0 0 0 0
27-07-2020 31.4 (14:00) 21.9 (00:00) 26.6 5.56 (10:00) 3.33 (11:10) 0 0 0 0 0
26-07-2020 31.6 (16:00) 21.9 (00:00) 26.8 5 (10:20) 3.33 (12:20) 0 0 0 0 0
25-07-2020 31 (14:40) 22.5 (00:00) 26.8 6.11 (17:20) 3.33 (15:30) 0 0 0 0 0
24-07-2020 30.9 (14:40) 20.7 (00:00) 25.8 6.67 (12:10) 4.44 (11:50) 0 0 0 0 0
23-07-2020 31.3 (16:40) 21.9 (00:00) 26.6 5.28 (00:20) 3.33 (00:20) 0 0 0 0 0
22-07-2020 30.8 (15:00) 22 (00:00) 26.4 10 (17:50) 6.11 (17:20) 0 0 0 0 0
21-07-2020 29.9 (15:30) 23.9 (00:00) 26.9 7.78 (22:20) 4.72 (22:00) 0 0 0 0 0
20-07-2020 28.9 (15:30) 20.4 (00:00) 24.6 5.28 (17:10) 3.33 (22:30) 0 0 0 0 0
19-07-2020 29.7 (16:00) 19.7 (00:00) 24.7 6.67 (18:10) 5.56 (18:20) 0 0 0 0 0
18-07-2020 29 (13:40) 20 (00:00) 24.5 10 (19:20) 8.06 (19:20) 0 0 0 0 0
17-07-2020 29 (16:40) 19.9 (00:00) 24.4 5.28 (13:10) 3.33 (16:10) 0 0 0 0 0
16-07-2020 28.5 (14:30) 21.8 (00:00) 25.1 6.67 (08:40) 4.17 (08:40) 0 0 0 0 0
15-07-2020 29.1 (14:00) 20 (00:00) 24.6 10.28 (01:00) 5.83 (00:10) 1.6 1.6 0 0 0

Gráficas

Temp. máximas Temp. mínimas Temp. medias Precipitaciones Rachas de viento máximas Velocidades máximas media en intervalos de 10 minutos

Datos horarios

Fecha y hora oficial Temperatura (ºC) Velocidad del viento (km/h) Dirección del viento Racha (km/h) Dirección de racha Precipitación (mm) Presión (hPa) Tendencia (hPa) Humedad (%)
2020-08-13 23:00:00 27 11 Este 18 Este 0 1011.9 1.5 83
2020-08-13 22:00:00 27.1 10 Este 17 Este 0 1011.3 1.1 83
2020-08-13 21:00:00 27.6 9 Este 33 Este 0 1010.8 0.6 80
2020-08-13 20:00:00 29.2 21 Este 33 Este 0 1010.4 -0.3 67
2020-08-13 19:00:00 31.3 19 Sudoeste 27 Sudoeste 0 1010.2 -0.9 65
2020-08-13 18:00:00 35.1 6 Noroeste 26 Oeste 0 1010.2 -1.6 42
2020-08-13 17:00:00 33.2 17 Oeste 31 Sudoeste 0 1010.7 -- 46
2020-08-13 16:00:00 30.7 27 Sudoeste 40 Sudoeste 0 1011.1 -- 62
2020-08-13 15:00:00 30.6 31 Sudoeste 39 Sudoeste 0 1011.8 -- 69
2020-08-13 14:00:00 31.5 21 Sudoeste 27 Sudoeste 0 1012 -- 65
2020-08-13 13:00:00 30.9 17 Sudoeste 21 Sudoeste 0 1012.3 -- 66
2020-08-13 12:00:00 30.5 7 Sur 13 Sudeste 0 1012.5 -- 66
2020-08-13 11:00:00 29.6 6 Este 14 Nordeste 0 1012.3 -- 67
2020-08-13 10:00:00 28.6 9 Nordeste 16 Nordeste 0 1012.2 -- 71
2020-08-13 09:00:00 27.1 10 Nordeste 16 Nordeste 0 1011.8 -- 82
2020-08-13 08:00:00 25.5 8 Nordeste 17 Nordeste 0 1011.3 -- 90
2020-08-13 07:00:00 24.4 8 Norte 17 Nordeste 0 1010.9 -- 90
2020-08-13 06:00:00 24.5 8 Nordeste 19 Nordeste 0 1010.9 -- 89
2020-08-13 05:00:00 24.7 10 Norte 17 Nordeste 0 1010.4 -- 90
2020-08-13 04:00:00 24.1 10 Norte 21 Norte 0 1010.5 -- 85
2020-08-13 03:00:00 23.4 9 Norte 14 Norte 0 1011 -- 77
2020-08-13 02:00:00 25.1 2 Oeste 7 Sudoeste 0 1011.3 -- 76
2020-08-13 01:00:00 26.1 5 Norte 16 Norte 0 1011.3 -- 67
2020-08-13 00:00:00 26.4 13 Norte 20 Norte 0 1011.1 -- 65
2020-08-12 23:00:00 26.5 11 Norte 17 Norte 0 1011.2 -- 67
2020-08-12 22:00:00 26.6 12 Norte 19 Norte 0 1011.1 -- 69
2020-08-12 21:00:00 27.2 6 Noroeste 19 Sudoeste 0 1011.3 -- 65
2020-08-12 20:00:00 27.8 16 Sudoeste 30 Sudoeste 0 1011.4 -- 72
2020-08-12 19:00:00 29 23 Sudoeste 38 Sudoeste 0 1011.7 -- 69
2020-08-12 18:00:00 29.9 27 Sudoeste 36 Sudoeste 0 1011.9 -- 59
2020-08-12 17:00:00 31.3 20 Sudoeste 27 Sudoeste 0 1012.1 -- 66
2020-08-12 16:00:00 31.5 21 Sudoeste 27 Sudoeste 0 1012.4 -- 65
2020-08-12 15:00:00 30.4 17 Sur 30 Sudoeste 0 1011.7 -- 60
2020-08-12 14:00:00 30.3 18 Sudoeste 24 Sudoeste 0 1012.1 -- 60
2020-08-12 13:00:00 28.4 9 Sudoeste 21 Sudeste 0 1012.4 -- 68
2020-08-12 12:00:00 26.4 12 Sur 21 Este 0.4 1012.7 -- 74
2020-08-12 11:00:00 26.8 7 Norte 23 Sudoeste 0 1013.8 -- 73
2020-08-12 10:00:00 28 6 Este 17 Norte 0 1012.6 -- 62
2020-08-12 09:00:00 27.5 6 Nordeste 15 Noroeste 0 1013.1 -- 66
2020-08-12 08:00:00 26.4 9 Norte 17 Norte 0 1012.4 -- 71
2020-08-12 07:00:00 25.6 10 Norte 27 Nordeste 0 1012 -- 76
2020-08-12 06:00:00 24.9 12 Nordeste 19 Norte 0 1010.7 -- 80
2020-08-12 05:00:00 24.9 12 Norte 20 Norte 0 1011.4 -- 81
2020-08-12 04:00:00 26.4 5 Este 21 Este 0 1011 -- 78
2020-08-12 03:00:00 26.7 12 Sudeste 22 Sudeste 0 1010.4 -- 78
2020-08-12 02:00:00 26.6 13 Sudeste 21 Sudeste 0 1010.7 -- 79
2020-08-12 01:00:00 26.8 15 Este 23 Este 0 1010.6 -- 80
2020-08-12 00:00:00 26.7 9 Este 19 Este 0 1011.1 -- 81
2020-08-11 23:00:00 26.7 12 Este 22 Este 0 1011.2 -- 80
2020-08-11 22:00:00 26.8 14 Este 24 Este 0 1011.1 -- 80
2020-08-11 21:00:00 26.8 15 Este 30 Este 0 1010.6 -- 79
2020-08-11 20:00:00 27.6 19 Este 32 Este 0 1010.4 -- 75
2020-08-11 19:00:00 28.2 18 Este 30 Este 0 1010.7 -- 72
2020-08-11 18:00:00 28.6 20 Este 32 Este 0 1011.3 -- 71
2020-08-11 17:00:00 29.2 14 Este 31 Este 0 1011.8 -- 70
2020-08-11 16:00:00 29.7 16 Este 28 Este 0 1012.1 -- 67
2020-08-11 15:00:00 30.7 14 Este 25 Este 0 1012.5 -- 61
2020-08-11 14:00:00 30.1 17 Este 27 Este 0 1012.7 -- 65
2020-08-11 13:00:00 30.2 16 Nordeste 30 Este 0 1012.7 -- 65
2020-08-11 12:00:00 30.3 15 Nordeste 27 Nordeste 0 1012.7 -- 65
2020-08-11 11:00:00 29.8 15 Nordeste 23 Nordeste 0 1012.6 -- 64
2020-08-11 10:00:00 28.5 14 Nordeste 20 Nordeste 0 1012.3 -- 68
2020-08-11 09:00:00 26.4 10 Norte 18 Norte 0 1012.2 -- 76
2020-08-11 08:00:00 24.2 9 Norte 16 Norte 0 1012.1 -- 85
2020-08-11 07:00:00 23.4 8 Norte 13 Norte 0 1011.7 -- 89
2020-08-11 06:00:00 26.3 9 Este 15 Este 0 1011.4 -- 77
2020-08-11 05:00:00 24.6 7 Nordeste 14 Sudeste 0 1011.2 -- 84
2020-08-11 04:00:00 25.3 5 Sudeste 17 Sudeste 0 1011.5 -- 82
2020-08-11 03:00:00 26.1 7 Sudeste 15 Sudeste 0 1011.6 -- 80
2020-08-11 02:00:00 26.1 9 Sudeste 13 Sudeste 0 1012 -- 83
2020-08-11 01:00:00 26.2 7 Sudeste 13 Sudeste 0 1012.6 -- 81
2020-08-11 00:00:00 26.4 6 Sudeste 17 Sudeste 0 1012.6 -- 82
2020-08-10 23:00:00 26.2 9 Sudeste 14 Sudeste 0 1011.9 -- 82
2020-08-10 22:00:00 26.4 8 Este 13 Este 0 1011.8 -- 81
2020-08-10 21:00:00 26.7 7 Sudeste 12 Sudeste 0 1011.4 -- 76
2020-08-10 20:00:00 28.6 5 Sudeste 14 Sur 0 1011.3 -- 71
2020-08-10 19:00:00 29.4 9 Sudeste 15 Sudeste 0 1011.6 -- 68
2020-08-10 18:00:00 30.5 8 Sudeste 17 Sudeste 0 1011.7 -- 59
2020-08-10 17:00:00 30.9 9 Sudeste 16 Sur 0 1011.8 -- 58
2020-08-10 16:00:00 31.1 7 Sudeste 18 Sudeste 0 1012.3 -- 59
2020-08-10 15:00:00 31.2 7 Sudeste 17 Sudeste 0 1012.4 -- 57
2020-08-10 14:00:00 30.7 8 Sudeste 18 Sur 0 1012.3 -- 61
2020-08-10 13:00:00 31.2 8 Sudeste 15 Sudeste 0 1012.4 -- 60
2020-08-10 12:00:00 30.7 8 Sudeste 15 Sudeste 0 1012.5 -- 61
2020-08-10 11:00:00 29.8 6 Sudeste 11 Sudeste 0 1012.4 -- 65
2020-08-10 10:00:00 28.3 5 Este 9 Este 0 1012.1 -- 70
2020-08-10 09:00:00 27 6 Nordeste 10 Norte 0 1012 -- 73
2020-08-10 08:00:00 23.7 8 Norte 10 Norte 0 1011.8 -- 82
2020-08-10 07:00:00 23.2 4 Noroeste 9 Norte 0 1011.3 -- 86
2020-08-10 06:00:00 23.8 5 Noroeste 10 Sudoeste 0 1011.4 -- 84
2020-08-10 05:00:00 24.3 6 Oeste 9 Oeste 0 1011.5 -- 83
2020-08-10 04:00:00 24 4 Noroeste 8 Sudoeste 0 1011.8 -- 81
2020-08-10 03:00:00 24.6 6 Oeste 9 Sudoeste 0 1011.8 -- 80
2020-08-10 02:00:00 24.1 4 Oeste 8 Sudoeste 0 1012.2 -- 79
2020-08-10 01:00:00 24.8 6 Oeste 8 Norte 0 1012.5 -- 75
2020-08-10 00:00:00 24.2 8 Norte 10 Norte 0 1013.2 -- 71
2020-08-09 23:00:00 24.8 3 Norte 5 Norte 0 1013.2 -- 74
2020-08-09 22:00:00 25.8 4 Sudoeste 9 Sudoeste 0 1013.1 -- 76
2020-08-09 21:00:00 27 6 Sudoeste 12 Sur 0 1012.8 -- 70
2020-08-09 20:00:00 29.3 9 Sudoeste 14 Sudoeste 0 1012.6 -- 61
2020-08-09 19:00:00 30.4 12 Sudoeste 16 Sudoeste 0 1012.4 -- 57
2020-08-09 18:00:00 31.2 14 Sudoeste 19 Sur 0 1012.6 -- 55
2020-08-09 17:00:00 31.4 16 Sur 18 Sur 0 1012.9 -- 55
2020-08-09 16:00:00 31.8 15 Sur 21 Sudoeste 0 1013.4 -- 53
2020-08-09 15:00:00 31.8 18 Sudoeste 23 Sudoeste 0 1013.8 -- 54
2020-08-09 14:00:00 31.7 18 Sudoeste 21 Sudoeste 0 1014.3 -- 54
2020-08-09 13:00:00 31 17 Sudoeste 19 Sudoeste 0 1014.6 -- 59
2020-08-09 12:00:00 29.3 13 Sur 15 Sur 0 1014.7 -- 66
2020-08-09 11:00:00 28.5 12 Sur 15 Sur 0 1014.9 -- 70
2020-08-09 10:00:00 28.3 9 Sur 12 Sudoeste 0 1014.9 -- 71
2020-08-09 09:00:00 26.9 4 Sudoeste 6 Sudoeste 0 1014.8 -- 71
2020-08-09 08:00:00 23.1 2 Norte 8 Norte 0 1014.5 -- 74
2020-08-09 07:00:00 21.7 7 Norte 9 Noroeste 0 1014.5 -- 76
2020-08-09 06:00:00 22 3 Nordeste 9 Este 0 1014 -- 74
2020-08-09 05:00:00 22.7 2 Sudeste 8 Norte 0 1014.3 -- 72
2020-08-09 04:00:00 23.1 6 Nordeste 14 Noroeste 0 1014.4 -- 62
2020-08-09 03:00:00 23 6 Noroeste 10 Oeste 0 1014.3 -- 66
2020-08-09 02:00:00 23.7 3 Oeste 7 Noroeste 0 1014.6 -- 72
2020-08-09 01:00:00 24 5 Noroeste 7 Noroeste 0 1015.1 -- 70
2020-08-09 00:00:00 25.1 2 Noroeste 16 Oeste 0 1015.4 -- 69
2020-08-08 23:00:00 25.6 6 Oeste 14 Oeste 0 1015.4 -- 74
2020-08-08 22:00:00 26 7 Sudoeste 22 Sudoeste 0 1015.4 -- 77
2020-08-08 21:00:00 26.6 18 Sudoeste 27 Sudoeste 0 1015 -- 74
2020-08-08 20:00:00 27.8 22 Sudoeste 28 Sudoeste 0 1015 -- 72
2020-08-08 19:00:00 28.8 21 Sudoeste 28 Sudoeste 0 1014.9 -- 67
2020-08-08 18:00:00 29.6 22 Sudoeste 28 Sudoeste 0 1015.4 -- 63
2020-08-08 17:00:00 30.3 23 Sudoeste 29 Sudoeste 0 1016.1 -- 61
2020-08-08 16:00:00 31.4 20 Sudoeste 23 Sudoeste 0 1016.4 -- 54
2020-08-08 15:00:00 31.1 18 Sur 21 Sur 0 1016.7 -- 54
2020-08-08 14:00:00 30.6 14 Sur 19 Sur 0 1017.1 -- 52
2020-08-08 13:00:00 30.6 14 Sudoeste 18 Sur 0 1017.7 -- 58
2020-08-08 12:00:00 29.6 12 Sur 14 Sur 0 1018 -- 63
2020-08-08 11:00:00 28.5 10 Sur 13 Sur 0 1018.1 -- 65
2020-08-08 10:00:00 28 8 Sur 10 Sur 0 1018 -- 67
2020-08-08 09:00:00 26.6 2 Sudoeste 6 Noroeste 0 1018 -- 66
2020-08-08 08:00:00 23.4 5 Noroeste 10 Noroeste 0 1017.5 -- 77
2020-08-08 07:00:00 21.4 6 Noroeste 8 Noroeste 0 1016.7 -- 74
2020-08-08 06:00:00 22.4 6 Oeste 10 Oeste 0 1016.6 -- 78
2020-08-08 05:00:00 21.5 5 Norte 8 Norte 0 1016.8 -- 80
2020-08-08 04:00:00 22 7 Norte 12 Norte 0 1016.9 -- 80
2020-08-08 03:00:00 21.9 8 Norte 9 Norte 0 1016.7 -- 76
2020-08-08 02:00:00 22.2 6 Norte 8 Norte 0 1017 -- 74
2020-08-08 01:00:00 22.7 6 Nordeste 9 Norte 0 1017.1 -- 71
2020-08-08 00:00:00 24 4 Norte 7 Norte 0 1017.4 -- 69
2020-08-07 23:00:00 24.9 4 Noroeste 11 Sudoeste 0 1017.2 -- 70
2020-08-07 22:00:00 25.6 7 Sudoeste 13 Sudoeste 0 1016.6 -- 71
2020-08-07 21:00:00 26.2 8 Sudoeste 13 Sudoeste 0 1016 -- 66
2020-08-07 20:00:00 28.5 10 Sudoeste 16 Sudoeste 0 1015.6 -- 59
2020-08-07 19:00:00 29.5 14 Sudoeste 18 Sudoeste 0 1015.7 -- 57
2020-08-07 18:00:00 30.3 15 Sudoeste 21 Sudoeste 0 1015.8 -- 54
2020-08-07 17:00:00 30.7 16 Sudoeste 21 Sudoeste 0 1016.1 -- 53
2020-08-07 16:00:00 31.2 16 Sudoeste 20 Sudoeste 0 1016.3 -- 53
2020-08-07 15:00:00 31.3 15 Sudoeste 18 Sur 0 1016.6 -- 51
2020-08-07 14:00:00 29.7 13 Sur 18 Sur 0 1016.7 -- 55
2020-08-07 13:00:00 29.5 12 Sur 16 Sur 0 1016.8 -- 57
2020-08-07 12:00:00 29.1 12 Sur 14 Sur 0 1016.9 -- 59
2020-08-07 11:00:00 28.6 9 Sur 12 Sur 0 1016.8 -- 63
2020-08-07 10:00:00 28 5 Sur 7 Sur 0 1016.6 -- 62
2020-08-07 09:00:00 26.2 2 Sudoeste 8 Norte 0 1016.4 -- 67
2020-08-07 08:00:00 23 7 Norte 9 Noroeste 0 1016.1 -- 76
2020-08-07 07:00:00 21.1 8 Norte 10 Norte 0 1015.8 -- 80
2020-08-07 06:00:00 20.4 9 Norte 10 Norte 0 1015.3 -- 79
2020-08-07 05:00:00 21.5 8 Norte 10 Norte 0 1015.1 -- 82
2020-08-07 04:00:00 21.4 8 Norte 10 Norte 0 1015.2 -- 81
2020-08-07 03:00:00 21.9 5 Norte 7 Norte 0 1015.6 -- 79
2020-08-07 02:00:00 22.3 5 Norte 6 Norte 0 1015.8 -- 78
2020-08-07 01:00:00 22.7 4 Norte 6 Norte 0 1015.9 -- 75
2020-08-07 00:00:00 23.1 3 Noroeste 5 Norte 0 1015.6 -- 73
2020-08-06 23:00:00 24.2 3 Noroeste 8 Sur 0 1015.2 -- 74
2020-08-06 22:00:00 25.1 4 Sudoeste 11 Sudoeste 0 1014.7 -- 70
2020-08-06 21:00:00 25.9 7 Sudoeste 14 Sur 0 1014.2 -- 69
2020-08-06 20:00:00 28.1 12 Sudoeste 17 Sudoeste 0 1013.9 -- 61
2020-08-06 19:00:00 29.4 12 Sudoeste 17 Sudoeste 0 1013.9 -- 58
2020-08-06 18:00:00 30.2 13 Sudoeste 20 Sudoeste 0 1014.2 -- 57
2020-08-06 17:00:00 30.1 17 Sudoeste 22 Sudoeste 0 1014.4 -- 57
2020-08-06 16:00:00 30.6 17 Sudoeste 23 Sudoeste 0 1014.7 -- 57
2020-08-06 15:00:00 30.1 15 Sur 20 Sudoeste 0 1015.1 -- 57
2020-08-06 14:00:00 29.4 10 Sur 19 Sudeste 0 1015.1 -- 60
2020-08-06 13:00:00 29.6 9 Sudeste 19 Sudeste 0 1015.1 -- 59
2020-08-06 12:00:00 29.5 9 Sudeste 16 Sudeste 0 1015.1 -- 59
2020-08-06 11:00:00 28.4 7 Este 12 Este 0 1015 -- 65
2020-08-06 10:00:00 27.1 6 Este 10 Nordeste 0 1014.6 -- 70
2020-08-06 09:00:00 25.2 6 Nordeste 10 Nordeste 0 1014.3 -- 77
2020-08-06 08:00:00 22.2 6 Norte 9 Norte 0 1013.8 -- 84
2020-08-06 07:00:00 21.3 8 Norte 10 Norte 0 1013.4 -- 85
2020-08-06 06:00:00 21.1 6 Norte 10 Norte 0 1013.2 -- 86
2020-08-06 05:00:00 21.4 8 Norte 10 Norte 0 1013.1 -- 84
2020-08-06 04:00:00 21.8 5 Nordeste 7 Norte 0 1013 -- 81
2020-08-06 03:00:00 22.4 3 Noroeste 9 Sur 0 1012.9 -- 84
2020-08-06 02:00:00 22.7 4 Oeste 11 Noroeste 0 1012.9 -- 76
2020-08-06 01:00:00 22.5 6 Noroeste 8 Norte 0 1013 -- 77
2020-08-06 00:00:00 23 6 Norte 8 Norte 0 1013 -- 75
2020-08-05 23:00:00 23.7 4 Noroeste 7 Norte 0 1012.9 -- 72
2020-08-05 22:00:00 24.8 4 Sudoeste 19 Sudoeste 0 1012.5 -- 70
2020-08-05 21:00:00 25.4 16 Sudoeste 25 Sudoeste 0 1011.8 -- 69
2020-08-05 20:00:00 26 21 Sudoeste 28 Sudoeste 0 1011.5 -- 68
2020-08-05 19:00:00 27.8 22 Sudoeste 29 Sudoeste 0 1011.4 -- 62
2020-08-05 18:00:00 28.1 24 Sudoeste 31 Sudoeste 0 1011.3 -- 60
2020-08-05 17:00:00 28.9 26 Sudoeste 36 Sudoeste 0 1011.4 -- 58
2020-08-05 16:00:00 29.4 30 Sudoeste 40 Sudoeste 0 1011.5 -- 54
2020-08-05 15:00:00 29.4 27 Sudoeste 34 Sudoeste 0 1011.6 -- 55
2020-08-05 14:00:00 29.4 25 Sudoeste 33 Sudoeste 0 1012 -- 55
2020-08-05 13:00:00 29.1 23 Sudoeste 30 Sudoeste 0 1012.3 -- 58
2020-08-05 12:00:00 28.9 21 Sudoeste 26 Sudoeste 0 1012.4 -- 57
2020-08-05 11:00:00 28.4 18 Sudoeste 25 Sudoeste 0 1012.5 -- 60
2020-08-05 10:00:00 26.8 10 Sudoeste 16 Oeste 0 1012.6 -- 62
2020-08-05 09:00:00 25.7 8 Oeste 14 Oeste 0 1012.5 -- 65
2020-08-05 08:00:00 23.3 5 Noroeste 14 Oeste 0 1011.9 -- 75
2020-08-05 07:00:00 21.5 5 Noroeste 9 Noroeste 0 1011.7 -- 82
2020-08-05 06:00:00 21.7 5 Noroeste 9 Norte 0 1011.6 -- 81
2020-08-05 05:00:00 21.6 6 Noroeste 7 Noroeste 0 1011.7 -- 81
2020-08-05 04:00:00 21.3 5 Noroeste 7 Noroeste 0 1011.9 -- 82
2020-08-05 03:00:00 21.8 4 Noroeste 6 Noroeste 0 1012.2 -- 79
2020-08-05 02:00:00 22.3 4 Noroeste 7 Oeste 0 1012.7 -- 77
2020-08-05 01:00:00 22.7 4 Noroeste 18 Sudoeste 0 1012.9 -- 76
2020-08-05 00:00:00 24 14 Sudoeste 22 Sudoeste 0 1012.9 -- 71
2020-08-04 23:00:00 24 16 Sudoeste 23 Sudoeste 0 1012.8 -- 69
2020-08-04 22:00:00 24 17 Sur 25 Sudoeste 0 1012.5 -- 67
2020-08-04 21:00:00 24.2 17 Sur 25 Sur 0 1012.2 -- 67
2020-08-04 20:00:00 24.6 17 Sur 23 Sur 0 1012.1 -- 65
2020-08-04 19:00:00 26.1 10 Sur 22 Sur 0 1011.9 -- 59
2020-08-04 18:00:00 27.1 8 Sur 17 Sudeste 0 1012.1 -- 55
2020-08-04 17:00:00 27.6 7 Sudeste 15 Sudeste 0 1012.3 -- 53
2020-08-04 16:00:00 27.1 8 Este 19 Este 0 1012.8 -- 53
2020-08-04 15:00:00 24.9 13 Este 26 Este 0 1013 -- 61
2020-08-04 14:00:00 23.6 13 Nordeste 28 Nordeste 1.2 1013.4 -- 78
2020-08-04 13:00:00 26.4 12 Este 22 Sudeste 0 1013.2 -- 57
2020-08-04 12:00:00 28.1 12 Sudeste 21 Sudeste 0 1013.3 -- 50
2020-08-04 11:00:00 27.8 10 Sudeste 23 Este 0 1013.3 -- 52
2020-08-04 10:00:00 26.3 12 Este 26 Este 0 1013.1 -- 54
2020-08-04 09:00:00 25.7 13 Este 25 Sudeste 0 1012.5 -- 55
2020-08-04 08:00:00 24.8 14 Este 26 Este 0 1012.1 -- 57
2020-08-04 07:00:00 24.7 16 Este 26 Este 0 1011.7 -- 57
2020-08-04 06:00:00 24.7 16 Este 30 Este 0 1011.9 -- 57
2020-08-04 05:00:00 24.9 18 Este 29 Nordeste 0 1011.6 -- 53
2020-08-04 04:00:00 22.8 9 Norte 18 Norte 0 1011.8 -- 61
2020-08-04 03:00:00 23.4 9 Norte 21 Nordeste 0 1012.2 -- 59
2020-08-04 02:00:00 25 13 Este 22 Este 0 1012.3 -- 55
2020-08-04 01:00:00 25.1 15 Este 22 Este 0 1012.4 -- 54
2020-08-04 00:00:00 25.3 14 Este 24 Este 0 1012.2 -- 61
2020-08-03 23:00:00 25.1 10 Este 17 Este 0 1011.5 -- 62
2020-08-03 22:00:00 25.4 10 Este 21 Nordeste 0 1010.9 -- 62
2020-08-03 21:00:00 25.4 13 Nordeste 22 Nordeste 0 1010.1 -- 62
2020-08-03 20:00:00 26 12 Nordeste 24 Nordeste 0 1009.7 -- 62
2020-08-03 19:00:00 26.9 15 Este 25 Este 0 1009.6 -- 57
2020-08-03 18:00:00 27.4 14 Nordeste 24 Este 0 1009.6 -- 57
2020-08-03 17:00:00 27.2 17 Este 29 Este 0 1009.7 -- 59
2020-08-03 16:00:00 28.2 15 Nordeste 28 Este 0 1010 -- 58
2020-08-03 15:00:00 27.8 14 Este 25 Nordeste 0 1010.7 -- 56
2020-08-03 14:00:00 28 15 Nordeste 28 Este 0 1011 -- 57
2020-08-03 13:00:00 26.1 17 Nordeste 29 Este 0 1011 -- 67
2020-08-03 12:00:00 26.5 13 Este 24 Este 0 1010.8 -- 63
2020-08-03 11:00:00 26.8 12 Este 23 Este 0 1010.6 -- 65
2020-08-03 10:00:00 26.1 12 Este 23 Este 0 1011 -- 68
2020-08-03 09:00:00 26 15 Este 26 Este 0 1010.9 -- 68
2020-08-03 08:00:00 25.8 14 Nordeste 25 Este 0 1010.9 -- 73
2020-08-03 07:00:00 25.5 15 Este 25 Este 0 1010.1 -- 75
2020-08-03 06:00:00 25.7 13 Este 24 Este 0 1010 -- 76
2020-08-03 05:00:00 25.7 12 Este 22 Este 0 1010 -- 74
2020-08-03 04:00:00 25.8 13 Este 23 Este 0 1010.5 -- 75
2020-08-03 03:00:00 25.9 14 Este 23 Este 0 1010.5 -- 75
2020-08-03 02:00:00 26 11 Este 19 Este 0 1011.1 -- 73
2020-08-03 01:00:00 26.3 13 Este 22 Este 0 1011.4 -- 72
2020-08-03 00:00:00 26.4 13 Este 23 Este 0 1011.4 -- 71
2020-08-02 23:00:00 26.6 15 Este 24 Este 0 1011.2 -- 71
2020-08-02 22:00:00 26.6 14 Este 22 Este 0 1010.8 -- 74
2020-08-02 21:00:00 26.9 12 Sudeste 17 Sudeste 0 1011 -- 73
2020-08-02 20:00:00 28.9 8 Sudeste 20 Este 0 1010.7 -- 66
2020-08-02 19:00:00 29.2 13 Nordeste 30 Nordeste 0 1010.9 -- 63
2020-08-02 18:00:00 29.7 17 Nordeste 29 Nordeste 0 1011.1 -- 59
2020-08-02 17:00:00 30.4 17 Nordeste 30 Nordeste 0 1011.3 -- 59
2020-08-02 16:00:00 29.9 22 Nordeste 34 Nordeste 0 1011.7 -- 58
2020-08-02 15:00:00 30.1 22 Nordeste 34 Nordeste 0 1012 -- 59
2020-08-02 14:00:00 29.8 25 Nordeste 38 Nordeste 0 1012.5 -- 57
2020-08-02 13:00:00 29.7 24 Nordeste 35 Nordeste 0 1012.7 -- 59
2020-08-02 12:00:00 29.6 23 Nordeste 35 Nordeste 0 1012.8 -- 62
2020-08-02 11:00:00 29.4 17 Nordeste 29 Este 0 1012.6 -- 63
2020-08-02 10:00:00 28.4 18 Nordeste 32 Nordeste 0 1012.3 -- 69
2020-08-02 09:00:00 27.5 18 Este 29 Este 0 1011.9 -- 74
2020-08-02 08:00:00 26.9 15 Nordeste 26 Este 0 1011.6 -- 79
2020-08-02 07:00:00 26.5 13 Nordeste 24 Este 0 1011.2 -- 87
2020-08-02 06:00:00 26.4 15 Nordeste 25 Este 0 1011 -- 89
2020-08-02 05:00:00 26.6 12 Nordeste 27 Nordeste 0 1010.8 -- 90
2020-08-02 04:00:00 26.6 17 Nordeste 25 Nordeste 0 1010.8 -- 90
2020-08-02 03:00:00 25.1 10 Norte 21 Nordeste 0 1011 -- 83
2020-08-02 02:00:00 25.7 6 Nordeste 17 Nordeste 0 1011 -- 81
2020-08-02 01:00:00 26.4 7 Este 10 Este 0 1011.1 -- 73
2020-08-02 00:00:00 27.1 8 Oeste 15 Noroeste 0 1011.6 -- 58
2020-08-01 23:00:00 27.4 2 Oeste 13 Oeste 0 1011.3 -- 54
2020-08-01 22:00:00 28.9 6 Noroeste 24 Oeste 0 1010.9 -- 44
2020-08-01 21:00:00 28.9 10 Oeste 24 Sudoeste 0 1010.1 -- 64
2020-08-01 20:00:00 28.7 19 Sudoeste 33 Sudoeste 0 1010.1 -- 81
2020-08-01 19:00:00 29.6 25 Sudoeste 38 Sudoeste 0 1010 -- 76
2020-08-01 18:00:00 30.3 27 Sudoeste 33 Sudoeste 0 1010.7 -- 73
2020-08-01 17:00:00 31.4 26 Sudoeste 33 Sudoeste 0 1011.2 -- 69
2020-08-01 16:00:00 31 27 Sudoeste 36 Sudoeste 0 1011.9 -- 70
2020-08-01 15:00:00 31.2 21 Sudoeste 27 Sudoeste 0 1012.1 -- 69
2020-08-01 14:00:00 30.3 19 Sudoeste 29 Sudoeste 0 1012.6 -- 72
2020-08-01 13:00:00 30 24 Sudoeste 32 Sudoeste 0 1013.3 -- 74
2020-08-01 12:00:00 29.9 19 Sudoeste 24 Sudoeste 0 1013.3 -- 76
2020-08-01 11:00:00 29.6 8 Sur 11 Sudoeste 0 1013.1 -- 78
2020-08-01 10:00:00 28.5 5 Sur 8 Sur 0 1012.6 -- 81
2020-08-01 09:00:00 26.9 3 Este 7 Noroeste 0 1012.8 -- 87
2020-08-01 08:00:00 24.6 4 Noroeste 10 Norte 0 1012.6 -- 96
2020-08-01 07:00:00 23.6 3 Oeste 8 Norte 0 1012.3 -- 96
2020-08-01 06:00:00 23.5 6 Norte 11 Nordeste 0 1012 -- 96
2020-08-01 05:00:00 24.4 3 Norte 9 Sur 0 1012.1 -- 96
2020-08-01 04:00:00 24.7 3 Sudeste 11 Oeste 0 1011.9 -- 95
2020-08-01 03:00:00 24.6 2 Noroeste 10 Norte 0 1012 -- 96
2020-08-01 02:00:00 25 2 Noroeste 8 Norte 0 1012.1 -- 93
2020-08-01 01:00:00 25.1 4 Norte 9 Norte 0 1012.5 -- 94
2020-08-01 00:00:00 24.8 6 Norte 7 Norte 0 1012.4 -- 93
2020-07-31 23:00:00 26.2 3 Este 5 Este 0 1012.5 -- 92
2020-07-31 22:00:00 26.5 5 Nordeste 12 Este 0 1012.4 -- 91
2020-07-31 21:00:00 27.1 4 Nordeste 9 Este 0 1012.1 -- 86
2020-07-31 20:00:00 29.1 5 Este 12 Este 0 1011.7 -- 76
2020-07-31 19:00:00 29.8 8 Este 13 Este 0 1011.7 -- 72
2020-07-31 18:00:00 30.8 6 Este 14 Este 0 1011.9 -- 67
2020-07-31 17:00:00 30.9 8 Este 14 Este 0 1012.6 -- 66
2020-07-31 16:00:00 31.2 9 Este 16 Este 0 1012.7 -- 64
2020-07-31 15:00:00 31.2 10 Este 19 Nordeste 0 1012.8 -- 65
2020-07-31 14:00:00 30.3 13 Este 19 Nordeste 0 1012.9 -- 68
2020-07-31 13:00:00 30.8 9 Este 16 Este 0 1013.2 -- 68
2020-07-31 12:00:00 30 9 Este 16 Nordeste 0 1013.4 -- 70
2020-07-31 11:00:00 28.6 12 Nordeste 19 Nordeste 0 1013.4 -- 78
2020-07-31 10:00:00 28.3 12 Nordeste 19 Nordeste 0 1013.3 -- 79
2020-07-31 09:00:00 27 8 Nordeste 18 Nordeste 0 1013.1 -- 84
2020-07-31 08:00:00 25.5 9 Nordeste 16 Norte 0 1012.4 -- 91
2020-07-31 07:00:00 23.2 12 Norte 15 Norte 0 1012.5 -- 92
2020-07-31 06:00:00 23 12 Norte 14 Norte 0 1012 -- 90
2020-07-31 05:00:00 23 8 Norte 16 Nordeste 0 1012.3 -- 90
2020-07-31 04:00:00 23.5 10 Norte 16 Norte 0 1012.8 -- 88
2020-07-31 03:00:00 23.8 12 Norte 15 Norte 0 1013.3 -- 90
2020-07-31 02:00:00 24.5 10 Norte 14 Norte 0 1013.2 -- 90
2020-07-31 01:00:00 24.9 9 Norte 15 Norte 0 1013.7 -- 91
2020-07-31 00:00:00 25.2 8 Norte 14 Nordeste 0 1013.6 -- 90
2020-07-30 23:00:00 26.2 7 Nordeste 15 Este 0 1013.3 -- 89
2020-07-30 22:00:00 26.4 9 Nordeste 15 Nordeste 0 1012.7 -- 87
2020-07-30 21:00:00 26.9 10 Nordeste 17 Nordeste 0 1012.3 -- 84
2020-07-30 20:00:00 28.6 10 Nordeste 17 Nordeste 0 1012.3 -- 76
2020-07-30 19:00:00 29.8 10 Nordeste 19 Este 0 1012.6 -- 69
2020-07-30 18:00:00 30.4 10 Nordeste 18 Este 0 1012.7 -- 66
2020-07-30 17:00:00 30.9 11 Este 18 Este 0 1013.1 -- 63
2020-07-30 16:00:00 31.7 11 Este 21 Este 0 1013.1 -- 59
2020-07-30 15:00:00 31.7 13 Nordeste 22 Este 0 1013.5 -- 58
2020-07-30 14:00:00 31.3 13 Este 21 Este 0 1013.7 -- 58
2020-07-30 13:00:00 32.1 10 Nordeste 20 Nordeste 0 1014.1 -- 55
2020-07-30 12:00:00 31.4 12 Nordeste 22 Nordeste 0 1014 -- 57
2020-07-30 11:00:00 30.7 13 Nordeste 22 Nordeste 0 1013.6 -- 58
2020-07-30 10:00:00 30 14 Nordeste 22 Nordeste 0 1013.2 -- 57
2020-07-30 09:00:00 27.9 13 Nordeste 22 Nordeste 0 1012.8 -- 71
2020-07-30 08:00:00 26.2 11 Nordeste 17 Nordeste 0 1012.7 -- 82
2020-07-30 07:00:00 24.1 10 Norte 20 Nordeste 0 1012.5 -- 84
2020-07-30 06:00:00 26 14 Nordeste 23 Nordeste 0 1012.1 -- 75
2020-07-30 05:00:00 25.1 10 Nordeste 17 Este 0 1012.5 -- 81
2020-07-30 04:00:00 24.2 8 Norte 17 Nordeste 0 1012.7 -- 79
2020-07-30 03:00:00 25.4 12 Nordeste 18 Nordeste 0 1012.9 -- 78
2020-07-30 02:00:00 24.9 10 Nordeste 15 Nordeste 0 1013.2 -- 80
2020-07-30 01:00:00 25.1 10 Nordeste 14 Norte 0 1013.4 -- 84
2020-07-30 00:00:00 25.9 8 Nordeste 24 Nordeste 0 1013.2 -- 88
2020-07-29 23:00:00 26.4 12 Nordeste 22 Nordeste 0 1013.2 -- 86
2020-07-29 22:00:00 26.5 15 Nordeste 23 Nordeste 0 1012.4 -- 86
2020-07-29 21:00:00 26.8 14 Nordeste 23 Nordeste 0 1012 -- 81
2020-07-29 20:00:00 27.6 15 Nordeste 25 Nordeste 0 1012 -- 73
2020-07-29 19:00:00 28.2 14 Nordeste 26 Nordeste 0 1012.2 -- 72
2020-07-29 18:00:00 28.7 17 Nordeste 29 Nordeste 0 1012.5 -- 70
2020-07-29 17:00:00 30 16 Nordeste 27 Nordeste 0 1012.9 -- 66
2020-07-29 16:00:00 29 15 Nordeste 28 Este 0 1013 -- 66
2020-07-29 15:00:00 31.6 13 Nordeste 27 Nordeste 0 1013.4 -- 58
2020-07-29 14:00:00 31.3 13 Nordeste 27 Este 0 1013.7 -- 58
2020-07-29 13:00:00 31.8 13 Nordeste 24 Este 0 1013.8 -- 56
2020-07-29 12:00:00 29.7 17 Nordeste 31 Nordeste 0 1013.5 -- 67
2020-07-29 11:00:00 28.9 22 Nordeste 34 Nordeste 0 1013.5 -- 72
2020-07-29 10:00:00 27.3 20 Nordeste 34 Nordeste 0 1012.9 -- 81
2020-07-29 09:00:00 27.9 14 Nordeste 30 Nordeste 0 1013.3 -- 78
2020-07-29 08:00:00 26.4 15 Nordeste 29 Este 0 1012.6 -- 85
2020-07-29 07:00:00 25.7 15 Nordeste 29 Nordeste 0 1012.2 -- 87
2020-07-29 06:00:00 25.4 12 Nordeste 26 Nordeste 0 1011.8 -- 89
2020-07-29 05:00:00 24.3 8 Nordeste 14 Nordeste 0 1012.1 -- 88
2020-07-29 04:00:00 24.5 10 Nordeste 17 Nordeste 0 1012.1 -- 87
2020-07-29 03:00:00 24.1 9 Norte 14 Norte 0 1012.4 -- 83
2020-07-29 02:00:00 24.3 8 Norte 13 Nordeste 0 1012.5 -- 83
2020-07-29 01:00:00 25.1 9 Nordeste 18 Nordeste 0 1012.5 -- 84
2020-07-29 00:00:00 26.1 12 Nordeste 19 Nordeste 0 1012.3 -- 83
2020-07-28 23:00:00 26.4 9 Nordeste 19 Nordeste 0 1012.3 -- 80
2020-07-28 22:00:00 26.4 10 Nordeste 17 Nordeste 0 1011.9 -- 79
2020-07-28 21:00:00 26.9 9 Nordeste 15 Nordeste 0 1011.7 -- 75
2020-07-28 20:00:00 28.6 8 Nordeste 15 Nordeste 0 1011.8 -- 70
2020-07-28 19:00:00 29.7 9 Nordeste 17 Este 0 1012 -- 65
2020-07-28 18:00:00 30.4 9 Nordeste 16 Este 0 1012.4 -- 62
2020-07-28 17:00:00 30.9 9 Este 14 Este 0 1012.4 -- 59
2020-07-28 16:00:00 31.8 7 Este 13 Este 0 1012.5 -- 58
2020-07-28 15:00:00 31.2 9 Este 15 Este 0 1012.7 -- 59
2020-07-28 14:00:00 30.6 9 Este 19 Este 0 1013.1 -- 63
2020-07-28 13:00:00 30.1 11 Este 21 Este 0 1013.5 -- 69
2020-07-28 12:00:00 29.9 13 Este 20 Este 0 1013.6 -- 68
2020-07-28 11:00:00 28.7 15 Este 23 Este 0 1013.5 -- 70
2020-07-28 10:00:00 28.3 14 Nordeste 23 Nordeste 0 1013.5 -- 75
2020-07-28 09:00:00 27.2 10 Nordeste 19 Nordeste 0 1013.5 -- 70
2020-07-28 08:00:00 25.1 9 Nordeste 17 Nordeste 0 1013.4 -- 69
2020-07-28 07:00:00 23.6 10 Nordeste 23 Norte 0 1013.1 -- 78
2020-07-28 06:00:00 23.1 14 Norte 20 Nordeste 0 1012.7 -- 90
2020-07-28 05:00:00 23.4 10 Norte 14 Norte 0 1012.1 -- 93
2020-07-28 04:00:00 23.5 12 Norte 15 Norte 0 1012.3 -- 93
2020-07-28 03:00:00 23.9 10 Norte 12 Norte 0 1012.8 -- 92
2020-07-28 02:00:00 24.1 8 Norte 12 Norte 0 1013.3 -- 90
2020-07-28 01:00:00 24.2 8 Norte 10 Norte 0 1013.8 -- 88
2020-07-28 00:00:00 24.5 7 Norte 11 Nordeste 0 1013.8 -- 86
2020-07-27 23:00:00 25.8 6 Este 10 Nordeste 0 1014 -- 84
2020-07-27 22:00:00 26 7 Este 10 Este 0 1013.7 -- 82
2020-07-27 21:00:00 26.7 5 Este 9 Este 0 1013.5 -- 77
2020-07-27 20:00:00 29 5 Este 9 Este 0 1013.4 -- 67
2020-07-27 19:00:00 30.2 5 Sudeste 15 Sudeste 0 1013.2 -- 63
2020-07-27 18:00:00 30.7 8 Sudeste 15 Sudeste 0 1013.5 -- 61
2020-07-27 17:00:00 30.5 7 Este 15 Este 0 1014 -- 59
2020-07-27 16:00:00 31 9 Este 14 Este 0 1014.4 -- 58
2020-07-27 15:00:00 31.2 7 Este 15 Este 0 1014.9 -- 57
2020-07-27 14:00:00 30.6 10 Este 15 Este 0 1015.3 -- 60
2020-07-27 13:00:00 29.8 10 Este 18 Nordeste 0 1015.4 -- 62
2020-07-27 12:00:00 29.5 10 Este 18 Nordeste 0 1015.6 -- 62
2020-07-27 09:00:00 26.5 11 Nordeste 18 Nordeste 0 1014.4 0.4 73
2020-07-27 08:00:00 23.6 8 Norte 14 Norte 0 1014.2 0.1 80
2020-07-27 07:00:00 22.2 11 Norte 15 Norte 0 1014.3 0.1 82
2020-07-27 06:00:00 22.5 9 Norte 14 Norte 0 1014 -0.1 82
2020-07-27 05:00:00 22.8 10 Norte 13 Norte 0 1014.1 -0.3 83
2020-07-27 04:00:00 22.4 9 Norte 13 Norte 0 1014.2 -0.6 85
2020-07-27 03:00:00 23.1 8 Norte 12 Norte 0 1014.1 -0.8 83
2020-07-27 02:00:00 23.3 9 Norte 12 Norte 0 1014.4 -0.1 82
2020-07-27 01:00:00 24.6 4 Norte 12 Este 0 1014.8 0.9 81
2020-07-27 00:00:00 25.7 7 Este 14 Este 0 1014.9 1.8 76
2020-07-26 23:00:00 25.9 9 Este 15 Este 0 1014.5 1.5 74
2020-07-26 22:00:00 26 8 Este 12 Este 0 1013.9 0.7 72
2020-07-26 21:00:00 26.7 7 Este 14 Este 0 1013.1 -0.2 72
2020-07-26 20:00:00 28.5 7 Este 15 Este 0 1013 -0.6 63
2020-07-26 19:00:00 29.6 8 Este 15 Este 0 1013.2 -0.6 62
2020-07-26 18:00:00 30.3 8 Sudeste 16 Sudeste 0 1013.3 -0.6 59
2020-07-26 17:00:00 30.9 8 Sudeste 16 Sudeste 0 1013.6 -0.5 56
2020-07-26 16:00:00 31.3 8 Sudeste 17 Sudeste 0 1013.8 -0.2 59
2020-07-26 15:00:00 31 11 Sudeste 17 Sudeste 0 1013.9 0 58
2020-07-26 14:00:00 30.8 9 Este 16 Este 0 1014.1 0.5 58
2020-07-26 13:00:00 30.7 7 Este 18 Este 0 1014 0.7 59
2020-07-26 12:00:00 29.8 11 Este 17 Este 0 1013.9 1.2 62
2020-07-26 11:00:00 28.9 10 Nordeste 18 Nordeste 0 1013.6 1.2 69
2020-07-26 10:00:00 27.7 11 Nordeste 17 Nordeste 0 1013.3 -- 74
2020-07-26 09:00:00 26.5 9 Nordeste 15 Nordeste 0 1012.7 -- 79
2020-07-26 08:00:00 23.8 9 Norte 15 Norte 0 1012.4 -- 87
2020-07-26 07:00:00 22.3 10 Norte 13 Norte 0 1012.2 -- 91
2020-07-26 06:00:00 22.1 8 Norte 10 Norte 0 1012 -- 91
2020-07-26 05:00:00 22.1 8 Norte 10 Norte 0 1011.9 -- 90
2020-07-26 04:00:00 22.7 6 Norte 9 Norte 0 1012.1 -- 88
2020-07-26 03:00:00 22.6 9 Norte 10 Norte 0 1012.2 -- 88
2020-07-26 02:00:00 22.9 7 Norte 9 Norte 0 1012.4 -- 86
2020-07-26 01:00:00 24 3 Norte 10 Sur 0 1012.4 -- 82
2020-07-26 00:00:00 24.4 2 Nordeste 9 Sur 0 1012.3 -- 81
2020-07-25 23:00:00 25.4 6 Sur 10 Sudeste 0 1012.1 -- 79
2020-07-25 22:00:00 25.6 5 Sur 10 Sur 0 1012 -- 77
2020-07-25 21:00:00 26.1 6 Sur 13 Sur 0 1011.8 -- 74
2020-07-25 20:00:00 27.6 9 Sur 16 Sur 0 1011.9 -- 69
2020-07-25 19:00:00 28.3 9 Sur 19 Sur 0 1011.9 -- 66
2020-07-25 18:00:00 28.7 10 Sur 22 Sudeste 0 1012.3 -- 66
2020-07-25 17:00:00 29.3 11 Sudeste 21 Sudeste 0 1012.8 -- 63
2020-07-25 16:00:00 30.6 10 Sudeste 18 Sudeste 0 1013.3 -- 59
2020-07-25 15:00:00 30.6 10 Sudeste 18 Sudeste 0 1013.7 -- 57
2020-07-25 14:00:00 30.6 8 Sudeste 17 Sudeste 0 1014 -- 57
2020-07-25 13:00:00 30.5 8 Sudeste 15 Sudeste 0 1014.1 -- 56
2020-07-25 12:00:00 30.2 9 Sudeste 16 Este 0 1014 -- 54
2020-07-25 11:00:00 28.7 8 Este 14 Sudeste 0 1013.8 -- 66
2020-07-25 10:00:00 28.1 6 Este 12 Este 0 1013.4 -- 70
2020-07-25 09:00:00 26.6 7 Este 12 Este 0 1013.1 -- 76
2020-07-25 08:00:00 23.4 6 Norte 10 Norte 0 1012.7 -- 88
2020-07-25 07:00:00 23 6 Norte 9 Norte 0 1012.6 -- 90
2020-07-25 06:00:00 23.1 4 Norte 11 Nordeste 0 1012.3 -- 89
2020-07-25 05:00:00 23 5 Nordeste 8 Norte 0 1012.4 -- 90
2020-07-25 04:00:00 23.2 4 Norte 6 Norte 0 1012.6 -- 89
2020-07-25 03:00:00 23.6 5 Norte 7 Norte 0 1013 -- 87
2020-07-25 02:00:00 23.7 6 Norte 8 Norte 0 1013.2 -- 87
2020-07-25 01:00:00 24.8 3 Este 9 Sudeste 0 1013.2 -- 83
2020-07-25 00:00:00 25.2 6 Sudeste 12 Sudeste 0 1013.1 -- 84
2020-07-24 23:00:00 25.4 5 Sudeste 11 Sudeste 0 1012.9 -- 83
2020-07-24 22:00:00 25.7 5 Sudeste 11 Sudeste 0 1012.3 -- 80
2020-07-24 21:00:00 26.4 5 Sudeste 10 Sudeste 0 1011.9 -- 76
2020-07-24 20:00:00 28.1 6 Sur 11 Sudoeste 0 1011.7 -- 71
2020-07-24 19:00:00 28.8 9 Sur 14 Sur 0 1011.7 -- 68
2020-07-24 18:00:00 29.6 12 Sur 17 Sudoeste 0 1011.8 -- 64
2020-07-24 17:00:00 29.4 13 Sur 17 Sur 0 1011.9 -- 62
2020-07-24 16:00:00 29.8 10 Sur 17 Sur 0 1012.1 -- 64
2020-07-24 15:00:00 30.4 9 Sudeste 17 Este 0 1012.5 -- 61
2020-07-24 14:00:00 29.8 12 Este 20 Nordeste 0 1012.7 -- 59
2020-07-24 13:00:00 29.9 12 Nordeste 24 Este 0 1013 -- 62
2020-07-24 12:00:00 28.9 14 Este 22 Este 0 1012.5 -- 66
2020-07-24 11:00:00 28.7 9 Este 14 Este 0 1012.1 -- 68
2020-07-24 10:00:00 27.4 8 Este 12 Este 0 1012 -- 69
2020-07-24 09:00:00 26.5 8 Nordeste 12 Nordeste 0 1011.7 -- 70
2020-07-24 08:00:00 24 8 Norte 11 Norte 0 1011.2 -- 65
2020-07-24 07:00:00 21.5 8 Norte 13 Norte 0 1011 -- 76
2020-07-24 06:00:00 21.3 9 Norte 13 Norte 0 1010.9 -- 71
2020-07-24 05:00:00 21.5 9 Norte 13 Norte 0 1010.8 -- 70
2020-07-24 04:00:00 21.1 11 Norte 13 Norte 0 1010.9 -- 65
2020-07-24 03:00:00 21.8 4 Noroeste 8 Norte 0 1011.1 -- 69
2020-07-24 02:00:00 22.5 2 Nordeste 8 Norte 0 1011.6 -- 63
2020-07-24 01:00:00 22.4 5 Norte 8 Norte 0 1011.8 -- 66
2020-07-24 00:00:00 22.6 3 Oeste 7 Norte 0 1011.8 -- 70
2020-07-23 23:00:00 23.9 2 Norte 7 Norte 0 1011.7 -- 70
2020-07-23 22:00:00 24.9 2 Sudoeste 8 Sudoeste 0 1011.5 -- 75
2020-07-23 21:00:00 26.4 7 Sur 9 Sur 0 1011.2 -- 70
2020-07-23 20:00:00 29.3 4 Sur 8 Sudeste 0 1011.2 -- 61
2020-07-23 19:00:00 29.9 5 Sudeste 9 Sur 0 1011.1 -- 61
2020-07-23 18:00:00 30.9 6 Sur 11 Sur 0 1011.6 -- 56
2020-07-23 17:00:00 31 6 Sudeste 14 Sudeste 0 1011.8 -- 55
2020-07-23 16:00:00 30.5 10 Sudeste 19 Sudeste 0 1012.3 -- 56
2020-07-23 15:00:00 30.8 11 Sudeste 18 Este 0 1012.6 -- 55
2020-07-23 14:00:00 30.8 7 Sudeste 14 Sudeste 0 1013.1 -- 59
2020-07-23 13:00:00 30 8 Este 13 Este 0 1013.3 -- 59
2020-07-23 12:00:00 29.6 8 Este 12 Este 0 1013.3 -- 66
2020-07-23 11:00:00 28.4 7 Este 12 Nordeste 0 1013.3 -- 70
2020-07-23 10:00:00 27.8 7 Nordeste 10 Este 0 1013.3 -- 67
2020-07-23 09:00:00 27.3 4 Este 6 Norte 0 1013.2 -- 65
2020-07-23 08:00:00 24.3 3 Este 8 Norte 0 1013.1 -- 57
2020-07-23 07:00:00 22 7 Norte 9 Norte 0 1013.1 -- 57
2020-07-23 06:00:00 23.1 9 Norte 12 Norte 0 1012.8 -- 52
2020-07-23 05:00:00 22.7 8 Norte 15 Norte 0 1013 -- 62
2020-07-23 04:00:00 23.4 10 Norte 14 Nordeste 0 1013.3 -- 66
2020-07-23 03:00:00 23.3 7 Norte 10 Norte 0 1013.3 -- 73
2020-07-23 02:00:00 25 6 Este 15 Nordeste 0 1013.8 -- 70
2020-07-23 01:00:00 25.7 11 Este 19 Este 0 1014.3 -- 67
2020-07-23 00:00:00 25.1 13 Nordeste 20 Nordeste 0 1014.5 -- 65
2020-07-22 23:00:00 24.1 12 Norte 17 Norte 0 1015 -- 63
2020-07-22 22:00:00 24.9 10 Nordeste 17 Nordeste 0 1014.5 -- 73
2020-07-22 21:00:00 25.8 5 Este 18 Sudeste 0 1014.1 -- 69
2020-07-22 20:00:00 27.4 13 Sudeste 35 Sudeste 0 1014.1 -- 63
2020-07-22 19:00:00 27.9 14 Este 29 Este 0 1014 -- 65
2020-07-22 18:00:00 28.5 18 Este 36 Este 0 1014.6 -- 61
2020-07-22 17:00:00 28.9 17 Este 25 Este 0 1015.6 -- 60
2020-07-22 16:00:00 30.5 14 Nordeste 22 Nordeste 0 1016.4 -- 56
2020-07-22 15:00:00 30.6 11 Nordeste 18 Este 0 1016.9 -- 54
2020-07-22 14:00:00 29.5 9 Este 15 Este 0 1016.6 -- 55
2020-07-22 13:00:00 28 9 Este 26 Este 0 1016.5 -- 62
2020-07-22 12:00:00 27 17 Este 28 Este 0 1016 -- 69
2020-07-22 11:00:00 27.5 18 Este 26 Este 0 1016.2 -- 68
2020-07-22 10:00:00 27.2 14 Nordeste 25 Nordeste 0 1016.6 -- 70
2020-07-22 09:00:00 26.1 12 Nordeste 19 Nordeste 0 1016.6 -- 76
2020-07-22 08:00:00 24.5 9 Norte 16 Nordeste 0 1016.1 -- 82
2020-07-22 07:00:00 22.7 10 Norte 20 Este 0 1015.9 -- 87
2020-07-22 06:00:00 24.5 12 Nordeste 23 Este 0 1015.6 -- 81
2020-07-22 05:00:00 24.7 16 Este 24 Este 0 1015.4 -- 81
2020-07-22 04:00:00 22.1 8 Nordeste 17 Nordeste 0 1015.9 -- 92
2020-07-22 03:00:00 22.4 9 Nordeste 15 Norte 0 1016.3 -- 89
2020-07-22 02:00:00 22.8 8 Nordeste 11 Nordeste 0 1016.6 -- 86
2020-07-22 01:00:00 24.3 6 Nordeste 13 Nordeste 0 1016.7 -- 82
2020-07-22 00:00:00 24.9 7 Este 19 Este 0 1016.7 -- 80
2020-07-21 23:00:00 25.3 12 Este 28 Este 0 1016.2 -- 79
2020-07-21 22:00:00 25.5 17 Este 26 Este 0 1015.7 -- 77
2020-07-21 21:00:00 25.9 17 Este 25 Este 0 1015.7 -- 74
2020-07-21 20:00:00 27.4 13 Este 26 Este 0 1015.7 -- 67
2020-07-21 19:00:00 27.8 16 Este 24 Este 0 1015.9 -- 66
2020-07-21 18:00:00 28.4 12 Este 20 Este 0 1016.2 -- 64
2020-07-21 17:00:00 29.1 12 Este 23 Este 0 1016.7 -- 60
2020-07-21 16:00:00 29.4 13 Este 24 Este 0 1016.7 -- 59
2020-07-21 15:00:00 29.3 14 Este 21 Este 0 1017 -- 59
2020-07-21 14:00:00 28.9 12 Este 20 Este 0 1017.3 -- 61
2020-07-21 13:00:00 28.7 14 Este 23 Este 0 1017.5 -- 63
2020-07-21 12:00:00 28.4 12 Este 24 Este 0 1017.4 -- 65
2020-07-21 11:00:00 27.6 15 Este 23 Este 0 1017.2 -- 67
2020-07-21 10:00:00 26.6 14 Este 25 Este 0 1016.8 -- 70
2020-07-21 09:00:00 25.9 12 Nordeste 23 Nordeste 0 1016.6 -- 75
2020-07-21 08:00:00 24.8 12 Este 21 Este 0 1016.2 -- 80
2020-07-21 07:00:00 24 14 Este 22 Este 0 1015.9 -- 81
2020-07-21 06:00:00 24 12 Este 19 Este 0 1015.8 -- 82
2020-07-21 05:00:00 24 10 Este 17 Este 0 1015.6 -- 83
2020-07-21 04:00:00 24 9 Este 17 Sudeste 0 1015.8 -- 83
2020-07-21 03:00:00 24.1 10 Sudeste 19 Sudeste 0 1016.2 -- 83
2020-07-21 02:00:00 24.3 10 Sudeste 20 Sudeste 0 1016.4 -- 82
2020-07-21 01:00:00 24.3 8 Sudeste 16 Sudeste 0 1016.5 -- 81
2020-07-21 00:00:00 24.4 9 Sudeste 18 Este 0 1016.5 -- 81
2020-07-20 23:00:00 24.5 10 Este 19 Este 0 1016 -- 81
2020-07-20 22:00:00 24.6 10 Sudeste 18 Este 0 1015.5 -- 80
2020-07-20 21:00:00 25.1 8 Sudeste 17 Sudeste 0 1015.3 -- 78
2020-07-20 20:00:00 27.2 8 Sudeste 15 Este 0 1015.1 -- 67
2020-07-20 19:00:00 28.2 8 Sudeste 15 Sudeste 0 1015.3 -- 63
2020-07-20 18:00:00 28.3 9 Sudeste 19 Sudeste 0 1015.4 -- 62
2020-07-20 17:00:00 28.3 10 Sudeste 18 Sudeste 0 1015.7 -- 62
2020-07-20 16:00:00 28.7 8 Sudeste 17 Sudeste 0 1015.9 -- 60
2020-07-20 15:00:00 28.3 9 Sur 17 Sudeste 0 1015.9 -- 61
2020-07-20 14:00:00 28.6 8 Sur 17 Sudeste 0 1016 -- 60
2020-07-20 13:00:00 28.6 7 Sudeste 15 Sur 0 1016.1 -- 60
2020-07-20 12:00:00 27.9 10 Sur 16 Sur 0 1016.2 -- 63
2020-07-20 11:00:00 27.2 9 Sur 15 Sur 0 1015.6 -- 66
2020-07-20 10:00:00 26.9 8 Sudeste 16 Sudeste 0 1014.9 -- 69
2020-07-20 09:00:00 25.7 10 Sudeste 17 Sudeste 0 1014.4 -- 73
2020-07-20 08:00:00 23.5 5 Este 10 Norte 0 1013.9 -- 86
2020-07-20 07:00:00 20.4 8 Norte 10 Norte 0 1013.5 -- 91
2020-07-20 06:00:00 21.1 7 Norte 8 Norte 0 1013.5 -- 90
2020-07-20 05:00:00 21.3 5 Norte 8 Norte 0 1013.6 -- 89
2020-07-20 04:00:00 21.5 9 Norte 10 Norte 0 1014 -- 88
2020-07-20 03:00:00 21.9 5 Norte 10 Norte 0 1014.4 -- 86
2020-07-20 02:00:00 22.1 7 Norte 9 Norte 0 1014.4 -- 84
2020-07-20 01:00:00 22.4 6 Norte 9 Norte 0 1014.4 -- 82
2020-07-20 00:00:00 23.6 4 Noroeste 14 Oeste 0 1014.3 -- 81
2020-07-19 23:00:00 24.3 9 Oeste 14 Oeste 0 1014.4 -- 79
2020-07-19 22:00:00 24.6 7 Sudoeste 17 Sudoeste 0 1013.8 -- 78
2020-07-19 21:00:00 25.4 13 Sudoeste 21 Sudoeste 0 1013.4 -- 76
2020-07-19 20:00:00 27.1 18 Sudoeste 24 Sudoeste 0 1013.4 -- 67
2020-07-19 19:00:00 28 20 Sudoeste 24 Sudoeste 0 1013.5 -- 64
2020-07-19 18:00:00 28.7 20 Sudoeste 24 Sudoeste 0 1013.8 -- 61
2020-07-19 17:00:00 29.3 18 Sudoeste 24 Sudoeste 0 1014.3 -- 60
2020-07-19 16:00:00 29.6 17 Sudoeste 21 Sur 0 1014.5 -- 58
2020-07-19 15:00:00 29.4 17 Sur 21 Sur 0 1014.5 -- 59
2020-07-19 14:00:00 28.7 15 Sur 20 Sur 0 1014.8 -- 60
2020-07-19 13:00:00 28 16 Sur 19 Sur 0 1014.8 -- 61
2020-07-19 12:00:00 27.6 14 Sur 19 Sur 0 1014.5 0.5 62
2020-07-19 11:00:00 27.3 13 Sur 17 Sur 0 1014.3 0.5 63
2020-07-19 10:00:00 26.6 11 Sur 15 Sudoeste 0 1014.1 0.6 64
2020-07-19 09:00:00 25.6 7 Sudoeste 9 Sur 0 1014 0.5 70
2020-07-19 08:00:00 21.9 4 Noroeste 9 Norte 0 1013.8 -- 83
2020-07-19 07:00:00 19.9 8 Norte 10 Norte 0 1013.5 -- 88
2020-07-19 06:00:00 20 6 Norte 8 Norte 0 1013.5 -- 87
2020-07-19 05:00:00 20.3 5 Norte 7 Norte 0 1013.4 -- 86
2020-07-19 04:00:00 20.8 5 Norte 9 Noroeste 0 1013.6 -- 85
2020-07-19 03:00:00 22.1 4 Sudoeste 18 Oeste 0 1013.7 -- 80
2020-07-19 02:00:00 22.1 5 Oeste 13 Oeste 0 1013.8 -- 79
2020-07-19 01:00:00 22.7 8 Oeste 16 Oeste 0 1014.3 -- 76
2020-07-19 00:00:00 23.1 10 Oeste 15 Oeste 0 1014.2 -- 75
2020-07-18 23:00:00 23.2 6 Oeste 13 Oeste 0 1014.2 -- 73
2020-07-18 22:00:00 23.9 8 Sudoeste 24 Sudoeste 0 1013.6 -- 73
2020-07-18 21:00:00 24.7 21 Sudoeste 31 Sudoeste 0 1012.9 -- 74
2020-07-18 20:00:00 25.3 25 Sudoeste 36 Sudoeste 0 1012.4 -- 73
2020-07-18 19:00:00 25.8 26 Sudoeste 33 Sudoeste 0 1012.5 -- 68
2020-07-18 18:00:00 27.2 23 Sudoeste 30 Sudoeste 0 1012.8 -- 61
2020-07-18 17:00:00 28.3 22 Sudoeste 27 Sudoeste 0 1013.1 -- 58
2020-07-18 16:00:00 26.3 18 Sudoeste 25 Sudoeste 0 1013.7 -- 65
2020-07-18 15:00:00 26.3 21 Sudoeste 27 Sudoeste 0 1013.8 -- 66
2020-07-18 14:00:00 28.7 21 Sudoeste 29 Sur 0 1013.9 -- 56
2020-07-18 13:00:00 27.3 16 Sur 21 Sudoeste 0 1014.3 -- 61
2020-07-18 12:00:00 28.4 9 Sur 13 Sur 0 1014.5 -- 57
2020-07-18 11:00:00 28.1 5 Sudeste 11 Sur 0 1014.3 -- 58
2020-07-18 10:00:00 27.1 5 Sur 8 Sudoeste 0 1014.4 -- 63
2020-07-18 09:00:00 25.5 5 Sur 7 Sur 0 1014.1 -- 70
2020-07-18 08:00:00 22.7 2 Oeste 7 Norte 0 1014 -- 79
2020-07-18 07:00:00 20.2 6 Norte 8 Norte 0 1013.8 -- 85
2020-07-18 06:00:00 20.3 6 Norte 10 Norte 0 1014.1 -- 83
2020-07-18 05:00:00 20.3 7 Norte 9 Norte 0 1014.1 -- 82
2020-07-18 04:00:00 20.9 6 Norte 8 Norte 0 1014.2 -- 81
2020-07-18 03:00:00 21.3 4 Noroeste 5 Noroeste 0 1014.4 -- 79
2020-07-18 02:00:00 21.5 5 Norte 9 Norte 0 1014.6 -- 77
2020-07-18 01:00:00 21.3 7 Norte 9 Norte 0 1014.8 -- 76
2020-07-18 00:00:00 22.6 4 Norte 15 Sur 0 1014.6 -- 73
2020-07-17 23:00:00 23.7 9 Sur 15 Sur 0 1014.3 -- 70
2020-07-17 22:00:00 24 11 Sur 15 Sur 0 1014 -- 69
2020-07-17 21:00:00 24.1 5 Sudoeste 15 Sur 0 1013.6 -- 62
2020-07-17 20:00:00 25.9 11 Sur 16 Sur 0 1013.5 -- 57
2020-07-17 19:00:00 26.4 11 Sur 15 Sur 0 1013.4 -- 54
2020-07-17 18:00:00 25.5 11 Sur 16 Sur 0 1014 -- 58
2020-07-17 17:00:00 27.5 12 Sur 17 Sur 0 1014.2 -- 52
2020-07-17 16:00:00 28.5 10 Sur 16 Sur 0 1014.4 -- 51
2020-07-17 15:00:00 27.8 7 Sur 18 Sur 0 1014.8 -- 55
2020-07-17 14:00:00 27.9 9 Sudeste 19 Este 0 1014.9 -- 54
2020-07-17 13:00:00 26.7 10 Este 18 Este 0 1015.1 -- 55
2020-07-17 12:00:00 27.7 9 Este 16 Este 0 1015.2 -- 57
2020-07-17 11:00:00 25.2 7 Nordeste 13 Este 0 1015.1 -- 66
2020-07-17 10:00:00 26.2 5 Este 10 Este 0 1015 -- 60
2020-07-17 09:00:00 24.8 2 Oeste 6 Norte 0 1014.9 -- 66
2020-07-17 08:00:00 21.3 5 Norte 8 Norte 0 1015 -- 79
2020-07-17 07:00:00 20 6 Norte 9 Norte 0 1014.8 -- 85
2020-07-17 06:00:00 20.3 5 Norte 9 Norte 0 1014.5 -- 83
2020-07-17 05:00:00 20.1 7 Norte 9 Norte 0 1014.4 -- 84
2020-07-17 04:00:00 20.5 6 Norte 8 Norte 0 1014.6 -- 82
2020-07-17 03:00:00 20.8 6 Norte 8 Norte 0 1015 -- 80
2020-07-17 02:00:00 21.2 7 Norte 9 Norte 0 1015.4 -- 79
2020-07-17 01:00:00 21.7 5 Norte 7 Norte 0 1015.7 -- 75
2020-07-17 00:00:00 21.8 4 Norte 8 Sur 0 1015.7 -- 75
2020-07-16 23:00:00 23.1 7 Sur 14 Sur 0 1015.7 -- 72
2020-07-16 22:00:00 23.3 5 Sur 14 Sur 0 1015.5 -- 70
2020-07-16 21:00:00 23.7 6 Sur 15 Sur 0 1015.6 -- 67
2020-07-16 20:00:00 24.2 9 Sur 15 Sur 0 1015.6 -- 66
2020-07-16 19:00:00 24.8 7 Sudeste 14 Sudeste 0 1015.6 -- 64
2020-07-16 18:00:00 24.9 7 Sur 23 Sur 0 1015.9 -- 63
2020-07-16 17:00:00 24.2 13 Sur 21 Sudeste 0 1016.5 -- 67
2020-07-16 16:00:00 24.8 9 Sudeste 21 Sudeste 0 1016.7 -- 63
2020-07-16 15:00:00 27 9 Sudeste 22 Sudeste 0 1016.9 -- 56
2020-07-16 14:00:00 27.5 10 Sudeste 21 Sudeste 0 1017.2 -- 55
2020-07-16 13:00:00 28 10 Sudeste 20 Sudeste 0 1017.5 -- 53
2020-07-16 12:00:00 28.2 10 Sudeste 19 Sudeste 0 1017.5 -- 54
2020-07-16 11:00:00 27.1 10 Sudeste 19 Sudeste 0 1017.4 -- 56
2020-07-16 10:00:00 26.4 10 Sudeste 23 Sudeste 0 1017.3 -- 58
2020-07-16 09:00:00 25.3 13 Este 24 Sudeste 0 1017 -- 65
2020-07-16 08:00:00 23.9 12 Sudeste 19 Sudeste 0 1016.6 -- 67
2020-07-16 07:00:00 23.4 12 Este 21 Sudeste 0 1016.2 -- 71
2020-07-16 06:00:00 23.4 10 Este 19 Este 0 1016.1 -- 70
2020-07-16 05:00:00 23.3 9 Este 17 Este 0 1016.1 -- 72
2020-07-16 04:00:00 23.4 10 Este 17 Este 0 1016.2 -- 71
2020-07-16 03:00:00 23.5 11 Este 19 Este 0 1016.4 -- 72
2020-07-16 02:00:00 23.6 10 Sudeste 16 Sudeste 0 1016.6 -- 70
2020-07-16 01:00:00 23.6 8 Sudeste 18 Sudeste 0 1016.7 -- 69
2020-07-16 00:00:00 24 10 Sur 21 Sudeste 0 1016.2 -- 69
2020-07-15 23:00:00 24.1 11 Sur 20 Sur 0 1015.9 -- 68
2020-07-15 22:00:00 24.1 7 Sudeste 18 Sur 0 1015.6 -- 67
2020-07-15 21:00:00 24.5 13 Sur 22 Sur 0 1015.3 -- 69
2020-07-15 20:00:00 25.4 16 Sur 23 Sur 0 1014.8 -- 67
2020-07-15 19:00:00 26.6 17 Sur 22 Sur 0 1014.6 -- 62
2020-07-15 18:00:00 27.4 14 Sur 19 Sur 0 1014.7 -- 57
2020-07-15 17:00:00 27.4 14 Sur 18 Sur 0 1014.9 -- 55
2020-07-15 16:00:00 28.5 14 Sur 19 Sur 0 1015.1 -- 51
2020-07-15 15:00:00 28.5 11 Sur 20 Sur 0 1015.2 -- 48
2020-07-15 14:00:00 29.1 9 Sudeste 18 Sudeste 0 1015.2 -- 46
2020-07-15 13:00:00 28.2 8 Este 14 Sudeste 0 1015.4 -- 49
2020-07-15 12:00:00 27.6 7 Este 15 Nordeste 0 1015.3 -- 53
2020-07-15 11:00:00 27 8 Este 15 Este 0 1015 -- 57
2020-07-15 10:00:00 25.6 8 Este 13 Nordeste 0 1014.7 -- 64
2020-07-15 09:00:00 24.7 8 Nordeste 12 Este 0 1014.3 -- 67
2020-07-15 08:00:00 22.2 8 Nordeste 14 Norte 0 1013.9 -- 74
2020-07-15 07:00:00 20.6 9 Norte 12 Norte 0 1013.6 -- 79
2020-07-15 06:00:00 20.4 8 Norte 21 Norte 0 1013.3 -- 80
2020-07-15 05:00:00 20.5 11 Norte 16 Norte 0 1013.3 -- 80
2020-07-15 04:00:00 20.1 12 Norte 22 Nordeste 0 1013 -- 82
2020-07-15 03:00:00 21.7 10 Nordeste 29 Este 0.4 1013.1 -- 76
2020-07-15 02:00:00 21.3 17 Este 31 Nordeste 1 1013.6 -- 72
2020-07-15 01:00:00 21.5 18 Nordeste 37 Nordeste 0.2 1014.1 -- 71
2020-07-15 00:00:00 23.7 17 Norte 33 Norte 0 1013.9 -- 52